Time;durP1;ratioP1;P1;durP2;ratioP2;P2;SDS_P1;SDS_P2;PMS_P1;PMS_P2;Temp;Humidity;BMP_temperature;BMP_pressure;BME280_temperature;BME280_humidity;BME280_pressure;Samples;Min_cycle;Max_cycle;Signal;HPM_P1;HPM_P2
2023/05/13 05:27:40;;;;;;;;;;;;;;;15.30;63.25;96734.75;4217292;27;10271;-69
2023/05/13 05:29:43;;;;;;;;;;;;;;;15.59;63.03;96739.25;4213788;28;5785;-69
2023/05/13 05:31:46;;;;;;;;;;;;;;;15.81;62.29;96736.94;4213567;28;5891;-69
2023/05/13 05:33:49;;;;;;;;;;;;;;;16.02;62.27;96743.59;4213721;28;5900;-69
2023/05/13 05:35:52;;;;;;;;;;;;;;;16.17;61.88;96743.97;4213795;28;5777;-69
2023/05/13 05:37:54;;;;;;;;;;;;;;;16.30;61.51;96741.09;4213774;28;5828;-68
2023/05/13 05:39:57;;;;;;;;;;;;;;;16.42;61.30;96742.94;4213278;28;5697;-69
2023/05/13 05:42:00;;;;;;;;;;;;;;;16.51;61.02;96749.56;4213445;28;5911;-69
2023/05/13 05:44:04;;;;;;;;;;;;;;;16.59;60.80;96749.25;4213620;28;5720;-69
2023/05/13 05:46:07;;;;;;;;;;;;;;;16.66;60.72;96749.13;4213209;28;5698;-70
2023/05/13 05:48:10;;;;;;;;;;;;;;;16.71;60.50;96751.94;4213157;28;5868;-68
2023/05/13 05:50:13;;;;;;;;;;;;;;;16.77;60.26;96743.00;4212991;28;5781;-69
2023/05/13 05:52:16;;;;;;;;;;;;;;;16.80;60.25;96750.56;4213638;28;6497;-70
2023/05/13 05:54:18;;;;;;;;;;;;;;;16.82;60.07;96749.25;4212925;28;5698;-70
2023/05/13 05:56:21;;;;;;;;;;;;;;;16.88;59.99;96748.34;4212966;28;5682;-68
2023/05/13 05:58:25;;;;;;;;;;;;;;;16.92;59.90;96747.88;4213273;28;5095;-68
2023/05/13 06:00:30;;;;;;;;;;;;;;;16.94;59.76;96751.09;4213180;28;6567;-68
2023/05/13 06:02:33;;;;;;;;;;;;;;;16.96;59.73;96754.34;4212975;28;6605;-68
2023/05/13 06:04:40;;;;;;;;;;;;;;;16.96;59.83;96760.50;4207845;28;5762;-69
2023/05/13 06:06:43;;;;;;;;;;;;;;;16.99;59.49;96757.38;4211571;28;5913;-69
2023/05/13 06:08:46;;;;;;;;;;;;;;;17.03;59.45;96753.19;4206345;28;5685;-68
2023/05/13 06:10:49;;;;;;;;;;;;;;;17.06;59.36;96758.06;4206585;28;5821;-69
2023/05/13 06:12:52;;;;;;;;;;;;;;;17.09;59.21;96754.09;4212881;28;6071;-69
2023/05/13 06:14:55;;;;;;;;;;;;;;;17.11;59.32;96752.03;4213013;28;5867;-68
2023/05/13 06:16:59;;;;;;;;;;;;;;;17.12;59.36;96748.31;4212453;28;5682;-68
2023/05/13 06:19:02;;;;;;;;;;;;;;;17.14;58.99;96756.88;4212774;28;5714;-69
2023/05/13 06:21:05;;;;;;;;;;;;;;;17.14;58.93;96762.22;4212773;28;5697;-69
2023/05/13 06:23:08;;;;;;;;;;;;;;;17.16;58.97;96760.13;4206162;28;5800;-70
2023/05/13 06:25:11;;;;;;;;;;;;;;;17.16;58.70;96754.78;4210723;28;5843;-69
2023/05/13 06:27:15;;;;;;;;;;;;;;;17.16;58.90;96752.94;4222601;28;5609;-69
2023/05/13 06:29:18;;;;;;;;;;;;;;;17.16;58.56;96758.28;4212144;28;5734;-69
2023/05/13 06:31:21;;;;;;;;;;;;;;;17.17;58.58;96757.22;4213170;28;5624;-69
2023/05/13 06:33:25;;;;;;;;;;;;;;;17.18;58.57;96760.72;4218627;28;5608;-68
2023/05/13 06:35:29;;;;;;;;;;;;;;;17.20;58.37;96761.28;4218141;28;5826;-68
2023/05/13 06:37:33;;;;;;;;;;;;;;;17.17;58.50;96751.88;4216748;28;5624;-68
2023/05/13 06:39:36;;;;;;;;;;;;;;;17.21;58.33;96757.56;4216207;28;5799;-68
2023/05/13 06:41:41;;;;;;;;;;;;;;;17.22;58.11;96755.72;4210067;28;5690;-69
2023/05/13 06:43:47;;;;;;;;;;;;;;;17.22;58.11;96761.88;4218007;28;6424;-69
2023/05/13 06:45:50;;;;;;;;;;;;;;;17.22;58.11;96755.72;4218098;28;5092;-69
2023/05/13 06:47:53;;;;;;;;;;;;;;;17.26;58.09;96763.03;4214173;28;5766;-68
2023/05/13 06:50:01;;;;;;;;;;;;;;;17.26;57.82;96765.69;4216547;28;5766;-69
2023/05/13 06:52:04;;;;;;;;;;;;;;;17.28;57.81;96763.59;4212948;28;5789;-69
2023/05/13 06:54:07;;;;;;;;;;;;;;;17.28;57.90;96760.91;4194474;28;6676;-69
2023/05/13 06:56:10;;;;;;;;;;;;;;;17.28;57.67;96762.78;4207291;28;5721;-69
2023/05/13 06:58:16;;;;;;;;;;;;;;;17.29;57.53;96762.53;4203814;28;5966;-68
2023/05/13 07:00:19;;;;;;;;;;;;;;;17.30;57.61;96766.03;4215290;28;6277;-69
2023/05/13 07:02:26;;;;;;;;;;;;;;;17.32;57.37;96764.72;4217586;28;5719;-69
2023/05/13 07:04:29;;;;;;;;;;;;;;;17.34;57.36;96757.31;4219836;28;5736;-68
2023/05/13 07:06:34;;;;;;;;;;;;;;;17.36;57.16;96765.09;4217527;28;5642;-69
2023/05/13 07:08:37;;;;;;;;;;;;;;;17.37;57.00;96756.03;4211978;28;5664;-69
2023/05/13 07:10:39;;;;;;;;;;;;;;;17.38;57.15;96758.47;4216877;28;5632;-69
2023/05/13 07:12:42;;;;;;;;;;;;;;;17.39;57.07;96756.59;4207723;28;5778;-69
2023/05/13 07:14:45;;;;;;;;;;;;;;;17.38;57.08;96755.78;4213099;28;5821;-69
2023/05/13 07:16:48;;;;;;;;;;;;;;;17.41;56.99;96757.16;4221266;28;5721;-69
2023/05/13 07:18:52;;;;;;;;;;;;;;;17.43;57.01;96763.06;4212685;28;5774;-69
2023/05/13 07:20:56;;;;;;;;;;;;;;;17.46;56.95;96765.28;4216694;28;5731;-69
2023/05/13 07:23:00;;;;;;;;;;;;;;;17.47;56.89;96761.56;4220943;28;5613;-68
2023/05/13 07:25:03;;;;;;;;;;;;;;;17.49;56.81;96764.81;4217458;28;5704;-68
2023/05/13 07:27:06;;;;;;;;;;;;;;;17.50;56.72;96761.09;4215516;28;7552;-70
2023/05/13 07:29:09;;;;;;;;;;;;;;;17.50;56.68;96758.41;4207958;28;5857;-70
2023/05/13 07:31:11;;;;;;;;;;;;;;;17.48;56.83;96762.38;4215986;28;5699;-69
2023/05/13 07:33:14;;;;;;;;;;;;;;;17.49;56.77;96755.97;4215471;28;5609;-69
2023/05/13 07:35:17;;;;;;;;;;;;;;;17.52;56.52;96758.19;4216433;28;5644;-70
2023/05/13 07:37:20;;;;;;;;;;;;;;;17.54;56.59;96756.06;4215783;28;5743;-70
2023/05/13 07:39:25;;;;;;;;;;;;;;;17.57;56.54;96763.63;4213875;28;5702;-70
2023/05/13 07:41:27;;;;;;;;;;;;;;;17.61;56.49;96759.44;4216799;28;5612;-70
2023/05/13 07:43:33;;;;;;;;;;;;;;;17.64;56.48;96761.63;4217151;28;5684;-67
2023/05/13 07:45:38;;;;;;;;;;;;;;;17.65;56.27;96757.88;4213241;28;5603;-68
2023/05/13 07:47:43;;;;;;;;;;;;;;;17.64;56.36;96762.44;4208224;28;5680;-68
2023/05/13 07:49:46;;;;;;;;;;;;;;;17.66;56.33;96757.66;4215863;28;5608;-68
2023/05/13 07:51:49;;;;;;;;;;;;;;;17.68;56.35;96768.13;4210336;28;5807;-68
2023/05/13 07:53:52;;;;;;;;;;;;;;;17.71;56.20;96760.47;4216483;28;5839;-69
2023/05/13 07:55:56;;;;;;;;;;;;;;;17.73;56.30;96760.22;4215824;28;5652;-68
2023/05/13 07:57:59;;;;;;;;;;;;;;;17.75;56.19;96760.78;4215913;28;5835;-69
2023/05/13 08:00:02;;;;;;;;;;;;;;;17.75;56.18;96761.59;4203935;28;5848;-69
2023/05/13 08:02:05;;;;;;;;;;;;;;;17.77;55.99;96761.34;4210114;28;5633;-68
2023/05/13 08:04:08;;;;;;;;;;;;;;;17.77;56.01;96761.34;4223370;28;5747;-68
2023/05/13 08:06:11;;;;;;;;;;;;;;;17.80;56.05;96766.25;4213142;28;5841;-68
2023/05/13 08:08:14;;;;;;;;;;;;;;;17.82;55.90;96763.34;4215980;28;5601;-69
2023/05/13 08:10:17;;;;;;;;;;;;;;;17.85;55.84;96769.00;4216840;28;5708;-69
2023/05/13 08:12:21;;;;;;;;;;;;;;;17.87;55.82;96764.22;4199001;28;5899;-70
2023/05/13 08:14:23;;;;;;;;;;;;;;;17.88;55.67;96755.13;4217518;28;5608;-69
2023/05/13 08:16:26;;;;;;;;;;;;;;;17.92;55.64;96763.53;4212032;28;5847;-69
2023/05/13 08:18:29;;;;;;;;;;;;;;;17.96;55.40;96756.63;4210458;28;5749;-70
2023/05/13 08:20:32;;;;;;;;;;;;;;;18.01;55.35;96760.22;4208267;28;5684;-69
2023/05/13 08:22:35;;;;;;;;;;;;;;;18.04;55.27;96756.25;4205154;28;5727;-69
2023/05/13 08:24:39;;;;;;;;;;;;;;;18.07;55.40;96757.63;4205536;28;5612;-69
2023/05/13 08:26:42;;;;;;;;;;;;;;;18.09;55.25;96761.66;4211934;28;5116;-67
2023/05/13 08:28:47;;;;;;;;;;;;;;;18.14;55.25;96755.59;4213347;28;5730;-68
2023/05/13 08:30:50;;;;;;;;;;;;;;;18.17;54.99;96763.97;4211957;28;5691;-68
2023/05/13 08:32:52;;;;;;;;;;;;;;;18.21;55.13;96758.94;4209980;28;5638;-71
2023/05/13 08:34:56;;;;;;;;;;;;;;;18.25;54.94;96762.75;4215516;28;5827;-70
2023/05/13 08:36:59;;;;;;;;;;;;;;;18.26;54.88;96762.50;4212846;28;5754;-70
2023/05/13 08:39:02;;;;;;;;;;;;;;;18.29;54.81;96770.03;4211880;28;5620;-70
2023/05/13 08:41:05;;;;;;;;;;;;;;;18.31;54.83;96767.94;4215743;28;5683;-70
2023/05/13 08:43:09;;;;;;;;;;;;;;;18.32;54.85;96758.03;4210309;28;5634;-71
2023/05/13 08:45:14;;;;;;;;;;;;;;;18.36;54.41;96758.38;4204370;28;5637;-71
2023/05/13 08:47:26;;;;;;;;;;;;;;;18.37;54.56;96766.16;4218658;28;5771;-71
2023/05/13 08:49:30;;;;;;;;;;;;;;;18.40;54.62;96762.19;4208278;28;5755;-70
2023/05/13 08:51:33;;;;;;;;;;;;;;;18.45;54.49;96764.94;4212799;28;5620;-71
2023/05/13 08:53:38;;;;;;;;;;;;;;;18.48;54.51;96765.28;4214807;28;5616;-70
2023/05/13 08:55:41;;;;;;;;;;;;;;;18.48;54.43;96759.91;4208835;28;5615;-70
2023/05/13 08:57:44;;;;;;;;;;;;;;;18.45;54.51;96765.75;4213667;28;5640;-71
2023/05/13 08:59:47;;;;;;;;;;;;;;;18.48;54.51;96772.50;4205765;28;5651;-70
2023/05/13 09:01:53;;;;;;;;;;;;;;;18.50;54.44;96765.03;4197454;28;5939;-70
2023/05/13 09:04:00;;;;;;;;;;;;;;;18.55;54.21;96762.41;4215608;28;5703;-71
2023/05/13 09:06:04;;;;;;;;;;;;;;;18.57;54.21;96763.81;4215907;28;5617;-70
2023/05/13 09:08:08;;;;;;;;;;;;;;;18.61;54.33;96766.81;4215668;28;5612;-70
2023/05/13 09:10:11;;;;;;;;;;;;;;;18.62;54.26;96766.56;4215667;28;5711;-70
2023/05/13 09:12:44;;;;;;;;;;;;;;;18.65;54.14;96761.78;4215937;28;5624;-71
2023/05/13 09:14:47;;;;;;;;;;;;;;;18.68;54.13;96763.97;4208783;28;5836;-71
2023/05/13 09:16:51;;;;;;;;;;;;;;;18.68;54.09;96759.44;4215789;28;5684;-70
2023/05/13 09:18:59;;;;;;;;;;;;;;;18.70;53.88;96754.66;4215405;28;5611;-70
2023/05/13 09:21:23;;;;;;;;;;;;;;;18.74;54.07;96752.31;4215780;28;5703;-70
2023/05/13 09:23:26;;;;;;;;;;;;;;;18.76;54.05;96752.84;4221001;28;5696;-70
2023/05/13 09:25:30;;;;;;;;;;;;;;;18.78;53.93;96758.78;4216486;28;5649;-70
2023/05/13 09:27:37;;;;;;;;;;;;;;;18.81;53.90;96751.06;4217790;28;5849;-71
2023/05/13 09:29:40;;;;;;;;;;;;;;;18.82;53.77;96751.88;4215852;28;5803;-70
2023/05/13 09:31:43;;;;;;;;;;;;;;;18.84;53.95;96747.91;4217402;28;5601;-71
2023/05/13 09:33:53;;;;;;;;;;;;;;;18.88;53.87;96751.69;4221591;28;5590;-71
2023/05/13 09:35:56;;;;;;;;;;;;;;;18.91;53.97;96747.72;4219685;28;5844;-70
2023/05/13 09:37:59;;;;;;;;;;;;;;;18.88;53.77;96738.31;4219940;28;5620;-70
2023/05/13 09:40:02;;;;;;;;;;;;;;;18.86;53.61;96748.47;4215357;28;5793;-71
2023/05/13 09:42:06;;;;;;;;;;;;;;;18.84;53.79;96747.09;4215617;28;5731;-71
2023/05/13 09:44:11;;;;;;;;;;;;;;;18.81;53.68;96744.91;4215226;28;5762;-71
2023/05/13 09:46:14;;;;;;;;;;;;;;;18.78;53.98;96740.84;4215409;28;6754;-70
2023/05/13 09:48:18;;;;;;;;;;;;;;;18.76;53.79;96740.28;4215189;28;5724;-71
2023/05/13 09:50:22;;;;;;;;;;;;;;;18.74;53.66;96746.94;4215290;28;5755;-71
2023/05/13 09:52:26;;;;;;;;;;;;;;;18.73;53.79;96748.81;4215402;28;5753;-71
2023/05/13 09:54:34;;;;;;;;;;;;;;;18.72;53.74;96747.19;4214803;28;5625;-71
2023/05/13 09:56:37;;;;;;;;;;;;;;;18.72;53.90;96751.75;4206840;28;6783;-70
2023/05/13 09:58:41;;;;;;;;;;;;;;;18.74;54.01;96744.25;4220272;28;5778;-70
2023/05/13 10:00:43;;;;;;;;;;;;;;;18.74;53.69;96744.25;4218248;28;5691;-70
2023/05/13 10:02:48;;;;;;;;;;;;;;;18.72;53.97;96741.03;4216375;28;5613;-70
2023/05/13 10:04:52;;;;;;;;;;;;;;;18.71;53.94;96744.75;4219083;28;5624;-70
2023/05/13 10:06:58;;;;;;;;;;;;;;;18.66;53.99;96731.28;4218879;28;5640;-70
2023/05/13 10:09:02;;;;;;;;;;;;;;;18.61;54.07;96738.16;4218717;28;5600;-70
2023/05/13 10:11:06;;;;;;;;;;;;;;;18.59;53.92;96742.97;4218803;28;5625;-70
2023/05/13 10:13:10;;;;;;;;;;;;;;;18.59;53.92;96745.63;4222089;28;5824;-70
2023/05/13 10:15:14;;;;;;;;;;;;;;;18.61;54.17;96738.16;4221227;28;5664;-70
2023/05/13 10:17:18;;;;;;;;;;;;;;;18.59;53.79;96740.28;4217813;28;5627;-70
2023/05/13 10:19:23;;;;;;;;;;;;;;;18.57;53.92;96739.72;4219862;28;5735;-70
2023/05/13 10:21:27;;;;;;;;;;;;;;;18.53;53.91;96737.75;4218509;28;5695;-70
2023/05/13 10:23:31;;;;;;;;;;;;;;;18.54;54.23;96739.38;4218346;28;5835;-70
2023/05/13 10:25:34;;;;;;;;;;;;;;;18.50;54.01;96739.06;4218588;28;5707;-70
2023/05/13 10:27:39;;;;;;;;;;;;;;;18.51;53.99;96742.56;4218107;28;5704;-70
2023/05/13 10:29:45;;;;;;;;;;;;;;;18.53;54.23;96738.56;4218411;28;5755;-70
2023/05/13 10:31:49;;;;;;;;;;;;;;;18.58;54.11;96730.63;4218211;28;5621;-70
2023/05/13 10:33:52;;;;;;;;;;;;;;;18.65;53.97;96737.69;4217759;28;5957;-70
2023/05/13 10:36:08;;;;;;;;;;;;;;;18.69;53.96;96731.63;4217882;28;5695;-72
2023/05/13 10:38:16;;;;;;;;;;;;;;;18.74;54.01;96734.38;4215876;28;5631;-70
2023/05/13 10:40:40;;;;;;;;;;;;;;;18.81;54.04;96731.53;4220506;28;5627;-70
2023/05/13 10:42:50;;;;;;;;;;;;;;;18.88;53.73;96729.47;4211664;28;5700;-71
2023/05/13 10:44:55;;;;;;;;;;;;;;;18.95;53.90;96730.09;4218082;28;5625;-69
2023/05/13 10:47:00;;;;;;;;;;;;;;;18.98;53.63;96729.59;4218107;28;5732;-70
2023/05/13 10:49:03;;;;;;;;;;;;;;;19.01;53.62;96726.41;4215079;28;5793;-70
2023/05/13 10:51:06;;;;;;;;;;;;;;;19.02;53.54;96722.69;4215428;28;5864;-71
2023/05/13 10:53:17;;;;;;;;;;;;;;;19.01;53.17;96723.75;4218008;28;5836;-70
2023/05/13 10:55:21;;;;;;;;;;;;;;;18.99;53.22;96720.50;4217976;28;5736;-70
2023/05/13 10:57:30;;;;;;;;;;;;;;;18.99;53.43;96712.47;4216103;28;5612;-70
2023/05/13 10:59:34;;;;;;;;;;;;;;;18.99;53.18;96711.66;4217829;28;5801;-70
2023/05/13 11:01:42;;;;;;;;;;;;;;;18.99;53.01;96720.50;4217968;28;5084;-70
2023/05/13 11:04:04;;;;;;;;;;;;;;;18.99;53.13;96715.16;4217181;28;5812;-70
2023/05/13 11:06:19;;;;;;;;;;;;;;;18.96;52.97;96712.16;4217969;28;5613;-70
2023/05/13 11:08:43;;;;;;;;;;;;;;;18.95;53.07;96714.03;4217730;28;5603;-70
2023/05/13 11:10:54;;;;;;;;;;;;;;;18.94;52.92;96707.06;4207665;28;5707;-70
2023/05/13 11:13:24;;;;;;;;;;;;;;;18.94;52.86;96709.72;4217725;28;6325;-70
2023/05/13 11:15:43;;;;;;;;;;;;;;;18.94;52.92;96700.88;4217570;28;5624;-70
2023/05/13 11:17:46;;;;;;;;;;;;;;;18.99;52.78;96700.94;4210275;28;5837;-70
2023/05/13 11:19:52;;;;;;;;;;;;;;;19.00;52.73;96705.25;4217461;28;5813;-70
2023/05/13 11:21:57;;;;;;;;;;;;;;;18.99;52.47;96704.44;4217560;28;5104;-70
2023/05/13 11:24:04;;;;;;;;;;;;;;;19.05;52.71;96702.63;4217440;28;5714;-70
2023/05/13 11:26:13;;;;;;;;;;;;;;;19.13;52.50;96702.19;4217208;28;5733;-70
2023/05/13 11:28:17;;;;;;;;;;;;;;;19.17;52.37;96706.00;4217304;28;5101;-70
2023/05/13 11:30:27;;;;;;;;;;;;;;;19.22;52.19;96700.69;4217305;28;5612;-70
2023/05/13 11:32:54;;;;;;;;;;;;;;;19.26;52.22;96701.03;4217052;28;5613;-70
2023/05/13 11:35:00;;;;;;;;;;;;;;;19.30;51.94;96696.78;4203475;28;5715;-70
2023/05/13 11:37:10;;;;;;;;;;;;;;;19.35;52.23;96688.78;4199325;28;5798;-71
2023/05/13 11:39:15;;;;;;;;;;;;;;;19.43;51.95;96694.50;4216993;28;5616;-74
2023/05/13 11:41:20;;;;;;;;;;;;;;;19.47;52.09;96692.13;4217367;28;5704;-75
2023/05/13 11:43:24;;;;;;;;;;;;;;;19.51;52.03;96693.25;4217211;28;5865;-74
2023/05/13 11:45:30;;;;;;;;;;;;;;;19.54;51.63;96692.75;4221540;28;5905;-75
2023/05/13 11:47:33;;;;;;;;;;;;;;;19.56;51.98;96692.53;4216900;28;5223;-75
2023/05/13 11:49:38;;;;;;;;;;;;;;;19.58;51.91;96693.06;4216953;28;5710;-73
2023/05/13 11:51:42;;;;;;;;;;;;;;;19.60;51.72;96688.28;4209613;28;5698;-76
2023/05/13 11:53:45;;;;;;;;;;;;;;;19.62;51.76;96689.66;4216802;28;5683;-76
2023/05/13 11:55:49;;;;;;;;;;;;;;;19.64;51.77;96698.25;4216847;28;6428;-76
2023/05/13 11:57:52;;;;;;;;;;;;;;;19.64;51.71;96700.94;4216817;28;5901;-72
2023/05/13 11:59:56;;;;;;;;;;;;;;;19.60;51.45;96688.28;4216693;28;5719;-72
2023/05/13 12:02:02;;;;;;;;;;;;;;;19.57;51.40;96694.13;4216445;28;5672;-73
2023/05/13 12:04:06;;;;;;;;;;;;;;;19.53;51.35;96693.00;4216696;28;6576;-73
2023/05/13 12:06:09;;;;;;;;;;;;;;;19.48;51.57;96693.78;4216751;28;5731;-74
2023/05/13 12:08:12;;;;;;;;;;;;;;;19.44;51.14;96692.63;4216733;28;5605;-73
2023/05/13 12:10:15;;;;;;;;;;;;;;;19.41;51.17;96685.09;4216524;28;5696;-73
2023/05/13 12:12:20;;;;;;;;;;;;;;;19.40;50.98;96686.16;4216638;28;6297;-73
2023/05/13 12:14:23;;;;;;;;;;;;;;;19.39;51.18;96681.88;4214646;28;5787;-76
2023/05/13 12:16:29;;;;;;;;;;;;;;;19.39;50.94;96681.88;4209392;28;6445;-72
2023/05/13 12:18:33;;;;;;;;;;;;;;;19.42;50.88;96679.47;4215105;28;5707;-72
2023/05/13 12:20:37;;;;;;;;;;;;;;;19.43;50.90;96682.97;4213385;28;5937;-75
2023/05/13 12:22:52;;;;;;;;;;;;;;;19.45;50.58;96683.53;4211863;28;5711;-70
2023/05/13 12:24:59;;;;;;;;;;;;;;;19.45;50.70;96687.00;4213108;28;5691;-72
2023/05/13 12:27:07;;;;;;;;;;;;;;;19.47;50.72;96684.88;4211400;28;5818;-73
2023/05/13 12:29:13;;;;;;;;;;;;;;;19.49;50.67;96681.97;4214124;28;5613;-75
2023/05/13 12:31:17;;;;;;;;;;;;;;;19.51;50.43;96695.13;4215787;28;5728;-74
2023/05/13 12:33:20;;;;;;;;;;;;;;;19.52;50.26;96692.19;4215951;28;6317;-73
2023/05/13 12:35:24;;;;;;;;;;;;;;;19.50;50.20;96683.59;4216395;28;5612;-74
2023/05/13 12:37:27;;;;;;;;;;;;;;;19.52;50.07;96683.34;4216361;28;5722;-74
2023/05/13 12:39:30;;;;;;;;;;;;;;;19.55;50.32;96686.34;4215514;28;5720;-76
2023/05/13 12:41:34;;;;;;;;;;;;;;;19.60;49.97;96686.41;4216105;28;5625;-72
2023/05/13 12:43:37;;;;;;;;;;;;;;;19.61;50.03;96684.53;4215811;28;5601;-71
2023/05/13 12:45:40;;;;;;;;;;;;;;;19.58;50.13;96688.53;4207847;28;6442;-74
2023/05/13 12:47:49;;;;;;;;;;;;;;;19.57;49.90;96694.13;4215989;28;5633;-71
2023/05/13 12:49:53;;;;;;;;;;;;;;;19.55;49.97;96691.72;4212351;28;5692;-75
2023/05/13 12:51:57;;;;;;;;;;;;;;;19.51;49.87;96701.31;4217970;28;5947;-72
2023/05/13 12:54:00;;;;;;;;;;;;;;;19.49;50.20;96703.44;4215795;28;5612;-73
2023/05/13 12:56:03;;;;;;;;;;;;;;;19.47;50.20;96710.88;4215796;28;6329;-76
2023/05/13 12:58:09;;;;;;;;;;;;;;;19.43;50.08;96710.59;4215662;28;5621;-74
2023/05/13 13:00:13;;;;;;;;;;;;;;;19.41;50.01;96711.91;4215853;28;5620;-75
2023/05/13 13:02:16;;;;;;;;;;;;;;;19.39;50.23;96712.16;4216005;28;5674;-75
2023/05/13 13:04:19;;;;;;;;;;;;;;;19.37;50.28;96721.53;4215650;28;5624;-72
2023/05/13 13:06:22;;;;;;;;;;;;;;;19.35;50.17;96718.25;4215801;28;5703;-73
2023/05/13 13:08:27;;;;;;;;;;;;;;;19.35;50.21;96707.53;4215669;28;5680;-75
2023/05/13 13:10:32;;;;;;;;;;;;;;;19.33;50.25;96705.09;4213699;28;5885;-73
2023/05/13 13:12:35;;;;;;;;;;;;;;;19.32;50.24;96713.41;4212227;28;5692;-71
2023/05/13 13:14:37;;;;;;;;;;;;;;;19.30;50.04;96710.16;4215030;28;5671;-75
2023/05/13 13:16:40;;;;;;;;;;;;;;;19.31;49.86;96722.50;4207890;28;5707;-74
2023/05/13 13:18:44;;;;;;;;;;;;;;;19.27;50.08;96713.34;4211349;28;5828;-72
2023/05/13 13:20:47;;;;;;;;;;;;;;;19.21;50.12;96712.47;4211445;28;6531;-73
2023/05/13 13:22:50;;;;;;;;;;;;;;;19.17;50.24;96711.38;4214104;28;5726;-74
2023/05/13 13:24:54;;;;;;;;;;;;;;;19.17;50.31;96717.53;4213115;28;5702;-74
2023/05/13 13:26:57;;;;;;;;;;;;;;;19.19;50.45;96722.63;4208255;28;5629;-74
2023/05/13 13:29:00;;;;;;;;;;;;;;;19.17;50.35;96708.69;4215226;28;5622;-72
2023/05/13 13:31:03;;;;;;;;;;;;;;;19.15;50.31;96716.97;4209847;28;5707;-71
2023/05/13 13:33:07;;;;;;;;;;;;;;;19.15;50.40;96708.13;4215481;28;5089;-71
2023/05/13 13:35:12;;;;;;;;;;;;;;;19.16;50.32;96715.09;4207316;28;5783;-72
2023/05/13 13:37:15;;;;;;;;;;;;;;;19.14;50.31;96704.63;4214185;28;5680;-74
2023/05/13 13:39:17;;;;;;;;;;;;;;;19.14;50.24;96711.84;4202487;28;5802;-71
2023/05/13 13:41:24;;;;;;;;;;;;;;;19.14;50.37;96706.47;4205112;28;5766;-73
2023/05/13 13:43:27;;;;;;;;;;;;;;;19.14;50.23;96706.47;4211470;28;5754;-73
2023/05/13 13:45:30;;;;;;;;;;;;;;;19.14;50.23;96710.00;4209730;28;5715;-72
2023/05/13 13:47:33;;;;;;;;;;;;;;;19.13;50.16;96710.22;4216986;28;5710;-74
2023/05/13 13:49:36;;;;;;;;;;;;;;;19.12;50.28;96711.28;4216906;28;5696;-71
2023/05/13 13:51:39;;;;;;;;;;;;;;;19.11;50.28;96713.16;4215045;28;5961;-72
2023/05/13 13:53:42;;;;;;;;;;;;;;;19.10;50.34;96719.56;4210903;28;5620;-71
2023/05/13 13:55:45;;;;;;;;;;;;;;;19.10;50.49;96710.72;4210215;28;5671;-73
2023/05/13 13:57:50;;;;;;;;;;;;;;;19.11;50.38;96715.03;4206717;28;5874;-72
2023/05/13 13:59:53;;;;;;;;;;;;;;;19.10;50.46;96711.53;4214218;28;5821;-71
2023/05/13 14:01:56;;;;;;;;;;;;;;;19.11;50.61;96707.00;4209540;28;5929;-69
2023/05/13 14:04:10;;;;;;;;;;;;;;;19.10;50.65;96705.38;4216899;28;5723;-68
2023/05/13 14:06:13;;;;;;;;;;;;;;;19.08;50.71;96707.50;4212374;28;5629;-69
2023/05/13 14:08:16;;;;;;;;;;;;;;;19.07;50.95;96709.38;4215258;28;5892;-73
2023/05/13 14:10:19;;;;;;;;;;;;;;;19.05;50.96;96710.69;4214979;28;5753;-74
2023/05/13 14:12:22;;;;;;;;;;;;;;;19.01;51.00;96702.31;4194181;28;5701;-76
2023/05/13 14:14:26;;;;;;;;;;;;;;;18.98;51.24;96707.34;4225883;28;5683;-81
2023/05/13 14:16:29;;;;;;;;;;;;;;;18.97;51.19;96698.50;4216350;28;5801;-74
2023/05/13 14:18:32;;;;;;;;;;;;;;;18.95;51.39;96695.28;4219528;28;5707;-74
2023/05/13 14:20:38;;;;;;;;;;;;;;;18.97;51.35;96697.72;4209284;28;5710;-74
2023/05/13 14:22:42;;;;;;;;;;;;;;;18.97;51.48;96700.38;4216367;28;5822;-73
2023/05/13 14:24:44;;;;;;;;;;;;;;;18.98;51.43;96700.13;4213000;28;5843;-71
2023/05/13 14:26:48;;;;;;;;;;;;;;;18.95;51.60;96713.22;4209961;28;5650;-75
2023/05/13 14:28:53;;;;;;;;;;;;;;;18.92;51.71;96709.19;4219016;28;5613;-80
2023/05/13 14:30:58;;;;;;;;;;;;;;;18.86;51.96;96710.16;4211464;28;5892;-74
2023/05/13 14:33:01;;;;;;;;;;;;;;;18.82;52.02;96709.84;4210737;28;5808;-75
2023/05/13 14:35:05;;;;;;;;;;;;;;;18.81;52.06;96708.22;4216716;28;5707;-73
2023/05/13 14:37:09;;;;;;;;;;;;;;;18.80;52.32;96716.47;4215416;28;5608;-75
2023/05/13 14:39:12;;;;;;;;;;;;;;;18.75;52.28;96708.41;4213680;28;5629;-78
2023/05/13 14:41:18;;;;;;;;;;;;;;;18.72;52.42;96714.25;4214420;28;5715;-74
2023/05/13 14:43:22;;;;;;;;;;;;;;;18.70;52.68;96711.81;4211716;28;5711;-74
2023/05/13 14:45:25;;;;;;;;;;;;;;;18.67;52.66;96712.28;4210893;28;5727;-75
2023/05/13 14:47:30;;;;;;;;;;;;;;;18.65;52.73;96721.63;4208771;28;5888;-72
2023/05/13 14:49:33;;;;;;;;;;;;;;;18.62;52.99;96715.69;4208985;28;7682;-75
2023/05/13 14:51:37;;;;;;;;;;;;;;;18.60;52.93;96712.44;4215301;28;5731;-75
2023/05/13 14:53:41;;;;;;;;;;;;;;;18.53;53.10;96706.44;4198593;28;5963;-71
2023/05/13 14:55:45;;;;;;;;;;;;;;;18.53;53.25;96714.47;4209093;28;5635;-72
2023/05/13 14:57:49;;;;;;;;;;;;;;;18.50;53.60;96712.31;4195597;28;5718;-76
2023/05/13 14:59:52;;;;;;;;;;;;;;;18.48;53.52;96710.94;4206044;28;5713;-74
2023/05/13 15:01:55;;;;;;;;;;;;;;;18.45;53.67;96709.53;4191324;28;5724;-83
2023/05/13 15:04:00;;;;;;;;;;;;;;;18.42;53.87;96709.22;4206064;28;5761;-76
2023/05/13 15:06:04;;;;;;;;;;;;;;;18.40;53.93;96706.78;4211825;28;5635;-71
2023/05/13 15:08:08;;;;;;;;;;;;;;;18.37;53.89;96699.25;4210859;28;5753;-75
2023/05/13 15:10:11;;;;;;;;;;;;;;;18.36;54.30;96712.88;4203423;28;5651;-75
2023/05/13 15:12:14;;;;;;;;;;;;;;;18.33;54.42;96706.94;4203003;28;5902;-76
2023/05/13 15:14:19;;;;;;;;;;;;;;;18.28;54.61;96696.19;4211148;28;5829;-76
2023/05/13 15:16:22;;;;;;;;;;;;;;;18.28;54.79;96704.19;4214374;28;5897;-83
2023/05/13 15:18:25;;;;;;;;;;;;;;;18.28;54.81;96693.50;4223016;28;5758;-75
2023/05/13 15:20:30;;;;;;;;;;;;;;;18.27;54.89;96697.22;4214821;28;5145;-77
2023/05/13 15:22:33;;;;;;;;;;;;;;;18.27;55.17;96696.41;4208355;28;5702;-79
2023/05/13 15:24:37;;;;;;;;;;;;;;;18.26;55.11;96700.97;4209756;28;5832;-76
2023/05/13 15:26:40;;;;;;;;;;;;;;;18.27;55.28;96693.75;4216100;28;5727;-77
2023/05/13 15:28:43;;;;;;;;;;;;;;;18.25;55.40;96693.19;4211664;28;5643;-77
2023/05/13 15:30:46;;;;;;;;;;;;;;;18.25;55.52;96695.84;4207788;28;5707;-77
2023/05/13 15:32:49;;;;;;;;;;;;;;;18.25;55.72;96696.66;4213760;28;5732;-75
2023/05/13 15:34:52;;;;;;;;;;;;;;;18.23;55.71;96690.75;4207484;28;6304;-81
2023/05/13 15:36:57;;;;;;;;;;;;;;;18.25;55.82;96701.22;4200186;28;5823;-78
2023/05/13 15:38:59;;;;;;;;;;;;;;;18.22;55.97;96701.69;4208225;28;5749;-73
2023/05/13 15:41:05;;;;;;;;;;;;;;;18.19;56.07;96700.31;4204684;28;5735;-71
2023/05/13 15:43:07;;;;;;;;;;;;;;;18.18;56.28;96708.59;4207418;28;6337;-73
2023/05/13 15:45:10;;;;;;;;;;;;;;;18.16;56.42;96705.34;4202347;28;5842;-74
2023/05/13 15:47:13;;;;;;;;;;;;;;;18.12;56.35;96709.53;4205795;28;5809;-68
2023/05/13 15:49:16;;;;;;;;;;;;;;;18.09;56.39;96710.84;4203181;28;5811;-76
2023/05/13 15:51:20;;;;;;;;;;;;;;;18.10;56.65;96712.47;4207286;28;6435;-74
2023/05/13 15:53:24;;;;;;;;;;;;;;;18.13;56.67;96711.19;4210652;28;5605;-75
2023/05/13 15:55:27;;;;;;;;;;;;;;;18.13;56.77;96706.66;4212119;28;6477;-73
2023/05/13 15:57:30;;;;;;;;;;;;;;;18.11;56.85;96705.25;4212126;28;5743;-68
2023/05/13 15:59:33;;;;;;;;;;;;;;;18.11;56.94;96702.56;4212685;28;5807;-72
2023/05/13 16:01:37;;;;;;;;;;;;;;;18.11;57.12;96705.25;4215269;28;5704;-74
2023/05/13 16:03:41;;;;;;;;;;;;;;;18.10;57.15;96709.78;4212937;28;5157;-76
2023/05/13 16:05:45;;;;;;;;;;;;;;;18.10;57.48;96704.44;4213943;28;5620;-68
2023/05/13 16:07:47;;;;;;;;;;;;;;;18.08;57.42;96708.41;4207534;28;6713;-69
2023/05/13 16:09:52;;;;;;;;;;;;;;;18.09;57.55;96708.16;4214450;28;5787;-66
2023/05/13 16:11:55;;;;;;;;;;;;;;;18.08;57.64;96709.22;4211506;28;5100;-69
2023/05/13 16:13:58;;;;;;;;;;;;;;;18.07;57.82;96712.13;4209071;28;5622;-69
2023/05/13 16:16:01;;;;;;;;;;;;;;;18.08;57.92;96719.91;4212520;28;5692;-77
2023/05/13 16:18:05;;;;;;;;;;;;;;;18.07;57.94;96728.19;4210319;28;6504;-77
2023/05/13 16:20:09;;;;;;;;;;;;;;;18.06;58.08;96721.22;4198038;28;5931;-70
2023/05/13 16:22:25;;;;;;;;;;;;;;;18.06;58.01;96715.88;4212531;28;5647;-75
2023/05/13 16:24:27;;;;;;;;;;;;;;;18.04;58.12;96732.97;4210898;28;5770;-73